createdAt,value
2022-12-22T00:01:54.833Z,8.22
2022-12-22T00:04:40.990Z,8.29
2022-12-22T00:07:26.353Z,8.28
2022-12-22T00:10:11.724Z,8.27
2022-12-22T00:12:57.068Z,8.22
2022-12-22T00:15:42.577Z,8.26
2022-12-22T00:18:34.105Z,8.27
2022-12-22T00:21:19.479Z,8.23
2022-12-22T00:24:04.373Z,8.28
2022-12-22T00:26:51.141Z,8.23
2022-12-22T00:29:36.607Z,8.22
2022-12-22T00:32:22.611Z,8.26
2022-12-22T00:35:08.008Z,8.24
2022-12-22T00:37:55.514Z,8.25
2022-12-22T00:40:45.605Z,8.27
2022-12-22T00:43:30.849Z,8.25
2022-12-22T00:46:17.338Z,8.27
2022-12-22T00:49:03.023Z,8.30
2022-12-22T00:51:49.836Z,8.27
2022-12-22T00:54:37.121Z,8.26
2022-12-22T00:57:22.703Z,8.28
2022-12-22T01:00:08.511Z,8.29
2022-12-22T01:02:54.227Z,8.29
2022-12-22T01:05:40.368Z,8.33
2022-12-22T01:08:29.196Z,8.32
2022-12-22T01:11:14.677Z,8.30
2022-12-22T01:13:59.783Z,8.31
2022-12-22T01:16:44.938Z,8.33
2022-12-22T01:19:30.401Z,8.35
2022-12-22T01:22:16.297Z,8.34
2022-12-22T01:25:02.776Z,8.28
2022-12-22T01:27:47.609Z,8.34
2022-12-22T01:30:33.110Z,8.36
2022-12-22T01:33:18.407Z,8.36
2022-12-22T01:36:03.232Z,8.34
2022-12-22T01:38:48.258Z,8.36
2022-12-22T01:41:38.742Z,8.35
2022-12-22T01:44:32.847Z,8.35
2022-12-22T01:47:44.137Z,8.38
2022-12-22T01:50:29.410Z,8.34
2022-12-22T01:53:19.788Z,8.30
2022-12-22T01:56:06.222Z,8.32
2022-12-22T01:58:55.401Z,8.33
2022-12-22T02:01:40.756Z,8.32
2022-12-22T02:04:25.915Z,8.34
2022-12-22T02:07:15.322Z,8.37
2022-12-22T02:10:28.922Z,8.39
2022-12-22T02:13:35.353Z,8.41
2022-12-22T02:16:33.581Z,8.39
2022-12-22T02:19:41.259Z,8.41
2022-12-22T02:22:52.904Z,8.39
2022-12-22T02:25:46.303Z,8.37
2022-12-22T02:28:32.982Z,8.34
2022-12-22T02:31:18.108Z,8.36
2022-12-22T02:34:03.374Z,8.33
2022-12-22T02:37:28.801Z,8.39
2022-12-22T02:40:41.405Z,8.38
2022-12-22T02:43:47.488Z,8.36
2022-12-22T02:46:51.086Z,8.36
2022-12-22T02:49:57.810Z,8.39
2022-12-22T02:52:53.364Z,8.36
2022-12-22T02:55:39.805Z,8.34
2022-12-22T02:58:25.448Z,8.35
2022-12-22T03:01:10.764Z,8.33
2022-12-22T03:03:56.315Z,8.32
2022-12-22T03:06:41.338Z,8.35
2022-12-22T03:09:26.150Z,8.34
2022-12-22T03:12:10.887Z,8.35
2022-12-22T03:14:56.194Z,8.35
2022-12-22T03:17:41.481Z,8.32
2022-12-22T03:20:27.419Z,8.35
2022-12-22T03:23:12.335Z,8.33
2022-12-22T03:25:52.026Z,8.33
2022-12-22T03:28:18.769Z,8.32
2022-12-22T03:30:45.264Z,8.37
2022-12-22T03:33:11.805Z,8.34
2022-12-22T03:35:38.312Z,8.33
2022-12-22T03:38:04.797Z,8.34
2022-12-22T03:40:32.231Z,8.35
2022-12-22T03:43:30.721Z,8.37
2022-12-22T03:46:16.159Z,8.36
2022-12-22T03:48:43.599Z,8.33
2022-12-22T03:51:10.912Z,8.32
2022-12-22T03:53:37.488Z,8.38
2022-12-22T03:56:07.993Z,8.34
2022-12-22T03:58:34.872Z,8.35
2022-12-22T04:01:06.485Z,8.32
2022-12-22T04:03:33.236Z,8.32
2022-12-22T04:06:00.132Z,8.33
2022-12-22T04:08:26.675Z,8.33
2022-12-22T04:11:11.769Z,8.36
2022-12-22T04:13:38.269Z,8.34
2022-12-22T04:16:04.992Z,8.30
2022-12-22T04:18:31.586Z,8.32
2022-12-22T04:20:58.090Z,8.33
2022-12-22T04:23:24.646Z,8.32
2022-12-22T04:25:51.128Z,8.36
2022-12-22T04:28:17.693Z,8.36
2022-12-22T04:30:44.245Z,8.39
2022-12-22T04:33:10.801Z,8.38
2022-12-22T04:35:37.335Z,8.44
2022-12-22T04:38:03.880Z,8.41
2022-12-22T04:40:30.455Z,8.42
2022-12-22T04:42:57.001Z,8.38
2022-12-22T04:45:23.560Z,8.36
2022-12-22T04:47:50.063Z,8.38
2022-12-22T04:50:16.874Z,8.35
2022-12-22T04:52:43.442Z,8.35
2022-12-22T04:55:10.001Z,8.35
2022-12-22T04:57:40.575Z,8.37
2022-12-22T05:00:09.298Z,8.39
2022-12-22T05:02:36.044Z,8.34
2022-12-22T05:05:02.716Z,8.37
2022-12-22T05:07:29.220Z,8.35
2022-12-22T05:09:55.757Z,8.34
2022-12-22T05:12:41.147Z,8.34
2022-12-22T05:15:08.155Z,8.36
2022-12-22T05:17:34.694Z,8.35
2022-12-22T05:20:01.155Z,8.34
2022-12-22T05:22:27.715Z,8.37
2022-12-22T05:24:54.195Z,8.36
2022-12-22T05:27:20.720Z,8.34
2022-12-22T05:29:47.309Z,8.36
2022-12-22T05:32:13.930Z,8.39
2022-12-22T05:34:40.483Z,8.38
2022-12-22T05:37:06.985Z,8.39
2022-12-22T05:39:33.517Z,8.34
2022-12-22T05:42:00.106Z,8.41
2022-12-22T05:44:26.639Z,8.41
2022-12-22T05:46:53.249Z,8.37
2022-12-22T05:49:20.247Z,8.37
2022-12-22T05:51:47.238Z,8.38
2022-12-22T05:54:13.867Z,8.38
2022-12-22T05:56:40.405Z,8.33
2022-12-22T05:59:06.939Z,8.44
2022-12-22T06:01:33.537Z,8.45
2022-12-22T06:04:00.865Z,8.44
2022-12-22T06:06:27.709Z,8.47
2022-12-22T06:08:54.265Z,8.46
2022-12-22T06:11:20.825Z,8.48
2022-12-22T06:13:47.287Z,8.48
2022-12-22T06:16:13.937Z,8.49
2022-12-22T06:18:40.487Z,8.50
2022-12-22T06:21:07.100Z,8.50
2022-12-22T06:23:33.633Z,8.50
2022-12-22T06:26:01.764Z,8.50
2022-12-22T06:28:28.905Z,8.50
2022-12-22T06:30:55.595Z,8.54
2022-12-22T06:33:22.295Z,8.56
2022-12-22T06:35:53.940Z,8.56
2022-12-22T06:38:25.044Z,8.59
2022-12-22T06:40:51.561Z,8.59
2022-12-22T06:43:19.022Z,8.60
2022-12-22T06:45:45.797Z,8.59
2022-12-22T06:48:13.269Z,8.57
2022-12-22T06:50:40.176Z,8.56
2022-12-22T06:53:08.294Z,8.55
2022-12-22T06:55:34.862Z,8.52
2022-12-22T06:58:02.022Z,8.54
2022-12-22T07:00:28.621Z,8.53
2022-12-22T07:02:55.311Z,8.51
2022-12-22T07:05:23.698Z,8.51
2022-12-22T07:07:50.691Z,8.50
2022-12-22T07:10:17.227Z,8.48
2022-12-22T07:12:43.755Z,8.47
2022-12-22T07:15:10.717Z,8.48
2022-12-22T07:17:37.351Z,8.44
2022-12-22T07:20:04.172Z,8.44
2022-12-22T07:22:31.312Z,8.42
2022-12-22T07:24:59.265Z,8.41
2022-12-22T07:27:25.808Z,8.38
2022-12-22T07:29:52.323Z,8.39
2022-12-22T07:32:18.811Z,8.36
2022-12-22T07:34:45.333Z,8.37
2022-12-22T07:37:13.544Z,8.35
2022-12-22T07:39:40.101Z,8.36
2022-12-22T07:42:25.169Z,8.35
2022-12-22T07:44:51.689Z,8.36
2022-12-22T07:47:18.278Z,8.35
2022-12-22T07:50:03.107Z,8.34
2022-12-22T07:52:29.710Z,8.32
2022-12-22T07:54:56.257Z,8.30
2022-12-22T07:57:22.823Z,8.25
2022-12-22T07:59:49.353Z,8.25
2022-12-22T08:02:16.027Z,8.24
2022-12-22T08:04:42.726Z,8.25
2022-12-22T08:07:09.273Z,8.26
2022-12-22T08:09:35.836Z,8.26
2022-12-22T08:12:02.359Z,8.22
2022-12-22T08:14:28.924Z,8.21
2022-12-22T08:16:55.535Z,8.21
2022-12-22T08:19:22.160Z,8.19
2022-12-22T08:21:52.843Z,8.19
2022-12-22T08:24:20.270Z,8.17
2022-12-22T08:26:51.167Z,8.17
2022-12-22T08:29:26.916Z,8.19
2022-12-22T08:31:54.489Z,8.19
2022-12-22T08:34:21.201Z,8.17
2022-12-22T08:36:51.133Z,8.17
2022-12-22T08:39:20.115Z,8.18
2022-12-22T08:41:53.290Z,8.18
2022-12-22T08:44:23.725Z,8.17
2022-12-22T08:46:51.916Z,8.13
2022-12-22T08:49:19.183Z,8.14
2022-12-22T08:51:46.472Z,8.11
2022-12-22T08:54:13.395Z,8.12
2022-12-22T08:56:40.073Z,8.09
2022-12-22T08:59:08.075Z,8.07
2022-12-22T09:01:36.974Z,8.05
2022-12-22T09:04:04.734Z,8.05
2022-12-22T09:06:38.527Z,8.02
2022-12-22T09:09:09.691Z,8.04
2022-12-22T09:11:36.450Z,8.06
2022-12-22T09:14:03.673Z,8.03
2022-12-22T09:16:32.536Z,8.04
2022-12-22T09:18:59.719Z,8.03
2022-12-22T09:21:26.318Z,8.01
2022-12-22T09:23:53.836Z,8.01
2022-12-22T09:26:22.371Z,8.00
2022-12-22T09:28:50.802Z,7.99
2022-12-22T09:31:18.632Z,8.01
2022-12-22T09:33:45.236Z,8.02
2022-12-22T09:36:17.207Z,8.03
2022-12-22T09:38:44.202Z,8.03
2022-12-22T09:41:50.842Z,8.07
2022-12-22T09:44:37.700Z,8.08
2022-12-22T09:47:16.445Z,8.02
2022-12-22T09:49:42.948Z,8.06
2022-12-22T09:52:40.616Z,8.07
2022-12-22T09:55:25.197Z,8.07
2022-12-22T09:57:53.557Z,8.09
2022-12-22T10:00:23.869Z,8.07
2022-12-22T10:03:15.164Z,8.13
2022-12-22T10:05:52.824Z,8.11
2022-12-22T10:08:27.525Z,8.10
2022-12-22T10:10:56.175Z,8.13
2022-12-22T10:13:22.942Z,8.11
2022-12-22T10:15:50.045Z,8.14
2022-12-22T10:18:20.286Z,8.15
2022-12-22T10:21:06.123Z,8.14
2022-12-22T10:23:38.575Z,8.10
2022-12-22T10:26:30.120Z,8.12
2022-12-22T10:29:07.330Z,8.11
2022-12-22T10:31:36.226Z,8.10
2022-12-22T10:34:14.021Z,8.09
2022-12-22T10:36:46.236Z,8.06
2022-12-22T10:39:24.178Z,8.08
2022-12-22T10:41:55.032Z,8.07
2022-12-22T10:44:26.249Z,8.04
2022-12-22T10:46:56.183Z,8.03
2022-12-22T10:52:32.248Z,8.05
2022-12-22T10:55:22.087Z,8.08
2022-12-22T10:57:50.390Z,8.11
2022-12-22T11:00:23.227Z,8.14
2022-12-22T11:02:55.216Z,8.05
2022-12-22T11:05:21.962Z,8.04
2022-12-22T11:07:48.705Z,8.06
2022-12-22T11:10:19.588Z,8.09
2022-12-22T11:12:54.805Z,8.13
2022-12-22T11:15:49.402Z,8.17
2022-12-22T11:18:24.593Z,8.13
2022-12-22T11:21:03.285Z,8.13
2022-12-22T11:23:43.139Z,8.14
2022-12-22T11:26:18.825Z,8.14
2022-12-22T11:28:55.169Z,8.17
2022-12-22T11:31:55.837Z,8.20
2022-12-22T11:34:55.679Z,8.22
2022-12-22T11:37:44.121Z,8.21
2022-12-22T11:40:28.936Z,8.22
2022-12-22T11:43:10.788Z,8.20
2022-12-22T11:45:59.514Z,8.19
2022-12-22T11:48:49.674Z,8.22
2022-12-22T11:52:00.217Z,8.25
2022-12-22T11:54:58.626Z,8.28
2022-12-22T11:57:56.461Z,8.29
2022-12-22T12:00:32.628Z,8.29
2022-12-22T12:03:38.077Z,8.30
2022-12-22T12:06:15.027Z,8.29
2022-12-22T12:09:10.887Z,8.29
2022-12-22T12:11:52.411Z,8.30
2022-12-22T12:14:34.542Z,8.28
2022-12-22T12:17:15.565Z,8.38
2022-12-22T12:20:00.741Z,8.29
2022-12-22T12:22:50.931Z,8.35
2022-12-22T12:25:38.797Z,8.34
2022-12-22T12:28:19.478Z,8.38
2022-12-22T12:30:54.079Z,8.44
2022-12-22T12:33:38.532Z,8.51
2022-12-22T12:36:07.913Z,8.56
2022-12-22T12:39:08.355Z,8.61
2022-12-22T12:42:09.573Z,8.65
2022-12-22T12:44:37.305Z,8.66
2022-12-22T12:47:23.679Z,8.68
2022-12-22T12:49:54.706Z,8.64
2022-12-22T12:52:39.599Z,8.65
2022-12-22T12:55:32.594Z,8.65
2022-12-22T12:58:03.262Z,8.58
2022-12-22T13:00:33.144Z,8.58
2022-12-22T13:06:49.741Z,8.59
2022-12-22T13:12:48.694Z,8.58
2022-12-22T13:15:27.501Z,8.59
2022-12-22T13:17:54.155Z,8.59
2022-12-22T13:20:35.708Z,8.60
2022-12-22T13:23:10.284Z,8.60
2022-12-22T13:25:42.743Z,8.59
2022-12-22T13:28:16.205Z,8.59
2022-12-22T13:30:57.834Z,8.61
2022-12-22T13:33:27.038Z,8.59
2022-12-22T13:35:58.805Z,8.58
2022-12-22T13:38:32.057Z,8.58
2022-12-22T13:41:02.617Z,8.56
2022-12-22T13:43:32.219Z,8.57
2022-12-22T13:46:02.572Z,8.56
2022-12-22T13:48:44.620Z,8.58
2022-12-22T13:51:18.902Z,8.58
2022-12-22T13:54:07.866Z,8.56
2022-12-22T13:56:39.875Z,8.57
2022-12-22T13:59:20.093Z,8.58
2022-12-22T14:01:51.483Z,8.55
2022-12-22T14:04:18.324Z,8.58
2022-12-22T14:06:44.972Z,8.59
2022-12-22T14:09:27.633Z,8.58
2022-12-22T14:12:00.358Z,8.58
2022-12-22T14:14:34.913Z,8.55
2022-12-22T14:17:02.576Z,8.55
2022-12-22T14:19:35.244Z,8.56
2022-12-22T14:22:11.142Z,8.55
2022-12-22T14:24:44.479Z,8.53
2022-12-22T14:27:37.209Z,8.56
2022-12-22T14:30:25.964Z,8.54
2022-12-22T14:32:56.533Z,8.53
2022-12-22T14:35:27.216Z,8.51
2022-12-22T14:37:55.323Z,8.50
2022-12-22T14:40:36.070Z,8.51
2022-12-22T14:43:05.631Z,8.51
2022-12-22T14:45:33.229Z,8.51
2022-12-22T14:47:59.818Z,8.51
2022-12-22T14:50:29.057Z,8.51
2022-12-22T14:53:04.995Z,8.50
2022-12-22T14:55:39.569Z,8.49
2022-12-22T14:58:08.934Z,8.49
2022-12-22T15:00:41.416Z,8.49
2022-12-22T15:03:37.055Z,8.50
2022-12-22T15:06:28.608Z,8.50
2022-12-22T15:09:13.302Z,8.49
2022-12-22T15:11:46.056Z,8.45
2022-12-22T15:14:17.428Z,8.43
2022-12-22T15:16:45.284Z,8.44
2022-12-22T15:19:17.950Z,8.44
2022-12-22T15:21:44.567Z,8.43
2022-12-22T15:24:16.501Z,8.39
2022-12-22T15:26:44.392Z,8.39
2022-12-22T15:29:11.503Z,8.37
2022-12-22T15:31:40.303Z,8.34
2022-12-22T15:34:31.761Z,8.34
2022-12-22T15:36:58.346Z,8.37
2022-12-22T15:39:24.907Z,8.36
2022-12-22T15:41:51.457Z,8.34
2022-12-22T15:44:18.348Z,8.32
2022-12-22T15:46:54.175Z,8.34
2022-12-22T15:49:23.576Z,8.34
2022-12-22T15:51:53.988Z,8.34
2022-12-22T15:54:21.604Z,8.30
2022-12-22T15:56:52.356Z,8.32
2022-12-22T15:59:23.772Z,8.32
2022-12-22T16:01:56.595Z,8.33
2022-12-22T16:04:28.227Z,8.30
2022-12-22T16:06:54.826Z,8.34
2022-12-22T16:09:25.149Z,8.31
2022-12-22T16:11:51.797Z,8.31
2022-12-22T16:14:20.449Z,8.32
2022-12-22T16:16:48.377Z,8.34
2022-12-22T16:19:17.133Z,8.32
2022-12-22T16:21:47.242Z,8.33
2022-12-22T16:24:35.781Z,8.36
2022-12-22T16:27:03.037Z,8.31
2022-12-22T16:29:30.050Z,8.34
2022-12-22T16:32:32.173Z,8.36
2022-12-22T16:35:20.405Z,8.38
2022-12-22T16:37:48.949Z,8.37
2022-12-22T16:40:17.749Z,8.37
2022-12-22T16:45:45.168Z,8.37
2022-12-22T16:48:34.159Z,8.42
2022-12-22T16:51:00.906Z,8.41
2022-12-22T16:53:29.009Z,8.41
2022-12-22T16:55:55.976Z,8.40
2022-12-22T16:58:22.542Z,8.42
2022-12-22T17:00:49.061Z,8.42
2022-12-22T17:03:20.708Z,8.43
2022-12-22T17:05:50.500Z,8.42
2022-12-22T17:08:25.140Z,8.45
2022-12-22T17:10:53.024Z,8.46
2022-12-22T17:13:20.731Z,8.42
2022-12-22T17:15:47.540Z,8.46
2022-12-22T17:18:16.832Z,8.47
2022-12-22T17:20:45.363Z,8.50
2022-12-22T17:23:24.074Z,8.51
2022-12-22T17:25:50.568Z,8.56
2022-12-22T17:28:17.234Z,8.55
2022-12-22T17:30:43.770Z,8.57
2022-12-22T17:33:16.041Z,8.59
2022-12-22T17:35:44.584Z,8.59
2022-12-22T17:38:19.570Z,8.63
2022-12-22T17:40:48.051Z,8.67
2022-12-22T17:43:19.697Z,8.69
2022-12-22T17:45:47.317Z,8.72
2022-12-22T17:48:15.884Z,8.69
2022-12-22T17:50:49.949Z,8.74
2022-12-22T17:53:20.869Z,8.74
2022-12-22T17:58:35.244Z,8.78
2022-12-22T18:01:01.895Z,8.82
2022-12-22T18:03:28.500Z,8.86
2022-12-22T18:05:55.431Z,8.84
2022-12-22T18:08:22.253Z,8.86
2022-12-22T18:10:49.406Z,8.91
2022-12-22T18:13:25.771Z,8.91
2022-12-22T18:15:53.190Z,8.95
2022-12-22T18:18:20.871Z,8.95
2022-12-22T18:21:07.672Z,8.97
2022-12-22T18:23:36.954Z,8.96
2022-12-22T18:26:05.974Z,8.96
2022-12-22T18:28:32.534Z,9.03
2022-12-22T18:30:59.293Z,9.09
2022-12-22T18:33:25.816Z,9.06
2022-12-22T18:35:52.431Z,9.04
2022-12-22T18:38:27.224Z,9.09
2022-12-22T18:40:53.957Z,9.15
2022-12-22T18:43:20.538Z,9.15
2022-12-22T18:45:47.221Z,9.14
2022-12-22T18:48:13.717Z,9.08
2022-12-22T18:50:41.194Z,9.16
2022-12-22T18:53:22.960Z,9.16
2022-12-22T18:55:49.587Z,9.21
2022-12-22T18:58:16.174Z,9.17
2022-12-22T19:00:43.488Z,9.24
2022-12-22T19:03:20.117Z,9.23
2022-12-22T19:05:47.707Z,9.28
2022-12-22T19:08:16.482Z,9.30
2022-12-22T19:10:46.681Z,9.28
2022-12-22T19:13:27.711Z,9.27
2022-12-22T19:15:54.964Z,9.32
2022-12-22T19:18:27.091Z,9.34
2022-12-22T19:20:55.517Z,9.37
2022-12-22T19:23:24.005Z,9.34
2022-12-22T19:25:56.291Z,9.40
2022-12-22T19:28:28.271Z,9.42
2022-12-22T19:30:55.889Z,9.45
2022-12-22T19:33:37.493Z,9.41
2022-12-22T19:36:05.455Z,9.43
2022-12-22T19:38:35.367Z,9.46
2022-12-22T19:41:04.275Z,9.43
2022-12-22T19:43:31.075Z,9.48
2022-12-22T19:45:57.762Z,9.43
2022-12-22T19:48:26.530Z,9.46
2022-12-22T19:50:54.013Z,9.47
2022-12-22T19:53:20.977Z,9.50
2022-12-22T19:55:56.442Z,9.51
2022-12-22T19:58:31.331Z,9.50
2022-12-22T20:00:58.708Z,9.49
2022-12-22T20:03:26.208Z,9.46
2022-12-22T20:05:52.817Z,9.50
2022-12-22T20:08:19.489Z,9.50
2022-12-22T20:10:46.393Z,9.53
2022-12-22T20:13:19.244Z,9.49
2022-12-22T20:15:45.970Z,9.49
2022-12-22T20:18:24.759Z,9.54
2022-12-22T20:21:03.466Z,9.50
2022-12-22T20:23:33.655Z,9.49
2022-12-22T20:26:03.992Z,9.50
2022-12-22T20:28:33.950Z,9.49
2022-12-22T20:31:02.543Z,9.49
2022-12-22T20:33:29.595Z,9.50
2022-12-22T20:35:57.996Z,9.51
2022-12-22T20:38:33.149Z,9.48
2022-12-22T20:41:00.422Z,9.45
2022-12-22T20:43:28.900Z,9.46
2022-12-22T20:46:00.289Z,9.48
2022-12-22T20:48:39.258Z,9.48
2022-12-22T20:51:10.221Z,9.47
2022-12-22T20:53:36.949Z,9.46
2022-12-22T20:56:03.685Z,9.47
2022-12-22T20:58:35.075Z,9.44
2022-12-22T21:01:02.281Z,9.43
2022-12-22T21:03:29.071Z,9.48
2022-12-22T21:05:55.688Z,9.48
2022-12-22T21:08:26.739Z,9.44
2022-12-22T21:10:54.949Z,9.48
2022-12-22T21:13:21.846Z,9.46
2022-12-22T21:15:51.910Z,9.48
2022-12-22T21:18:23.675Z,9.49
2022-12-22T21:20:51.336Z,9.46
2022-12-22T21:23:17.953Z,9.47
2022-12-22T21:25:48.289Z,9.45
2022-12-22T21:28:27.053Z,9.44
2022-12-22T21:30:53.612Z,9.49
2022-12-22T21:33:20.249Z,9.45
2022-12-22T21:35:46.771Z,9.49
2022-12-22T21:38:18.682Z,9.50
2022-12-22T21:40:48.134Z,9.56
2022-12-22T21:43:15.837Z,9.48
2022-12-22T21:45:44.118Z,9.48
2022-12-22T21:48:18.576Z,9.48
2022-12-22T21:50:47.118Z,9.48
2022-12-22T21:53:19.823Z,9.50
2022-12-22T21:55:49.065Z,9.49
2022-12-22T21:58:15.675Z,9.49
2022-12-22T22:00:47.024Z,9.47
2022-12-22T22:03:14.767Z,9.46
2022-12-22T22:05:42.373Z,9.47
2022-12-22T22:08:11.272Z,9.47
2022-12-22T22:10:40.516Z,9.48
2022-12-22T22:13:07.294Z,9.49
2022-12-22T22:15:34.654Z,9.52
2022-12-22T22:18:06.851Z,9.51
2022-12-22T22:20:34.109Z,9.53
2022-12-22T22:23:00.846Z,9.54
2022-12-22T22:25:27.855Z,9.50
2022-12-22T22:27:59.381Z,9.52
2022-12-22T22:30:26.079Z,9.55
2022-12-22T22:32:54.063Z,9.55
2022-12-22T22:35:21.893Z,9.49
2022-12-22T22:37:52.133Z,9.54
2022-12-22T22:40:21.516Z,9.49
2022-12-22T22:42:48.618Z,9.54
2022-12-22T22:45:23.015Z,9.50
2022-12-22T22:47:51.134Z,9.49
2022-12-22T22:50:19.054Z,9.50
2022-12-22T22:52:46.221Z,9.46
2022-12-22T22:55:14.176Z,9.48
2022-12-22T22:57:42.190Z,9.43
2022-12-22T23:00:11.664Z,9.48
2022-12-22T23:02:38.753Z,9.48
2022-12-22T23:05:05.781Z,9.50
2022-12-22T23:07:32.450Z,9.50
2022-12-22T23:09:58.942Z,9.50
2022-12-22T23:12:25.648Z,9.51
2022-12-22T23:14:52.220Z,9.49
2022-12-22T23:17:19.204Z,9.49
2022-12-22T23:19:45.728Z,9.49
2022-12-22T23:22:12.632Z,9.51
2022-12-22T23:24:39.150Z,9.50
2022-12-22T23:27:05.772Z,9.50
2022-12-22T23:29:32.305Z,9.50
2022-12-22T23:31:58.897Z,9.51
2022-12-22T23:34:25.508Z,9.52
2022-12-22T23:36:52.017Z,9.53
2022-12-22T23:39:18.574Z,9.53
2022-12-22T23:41:45.183Z,9.53
2022-12-22T23:44:11.819Z,9.51
2022-12-22T23:46:38.344Z,9.52
2022-12-22T23:49:04.842Z,9.51
2022-12-22T23:51:31.559Z,9.51
2022-12-22T23:54:00.872Z,9.52
2022-12-22T23:56:29.479Z,9.51
2022-12-22T23:58:56.507Z,9.49
